createdAt,value
2019-05-18T00:01:36.093Z,-81
2019-05-18T00:04:05.392Z,-81
2019-05-18T00:06:34.704Z,-81
2019-05-18T00:09:06.087Z,-79
2019-05-18T00:11:35.394Z,-81
2019-05-18T00:14:04.865Z,-80
2019-05-18T00:16:35.070Z,-81
2019-05-18T00:19:04.372Z,-82
2019-05-18T00:21:33.756Z,-81
2019-05-18T00:24:03.062Z,-81
2019-05-18T00:26:32.374Z,-81
2019-05-18T00:29:01.758Z,-81
2019-05-18T00:31:31.166Z,-81
2019-05-18T00:34:00.480Z,-79
2019-05-18T00:36:29.788Z,-81
2019-05-18T00:38:59.109Z,-81
2019-05-18T00:41:28.416Z,-81
2019-05-18T00:43:57.744Z,-81
2019-05-18T00:46:27.052Z,-82
2019-05-18T00:48:57.358Z,-81
2019-05-18T00:51:27.286Z,-81
2019-05-18T00:53:56.589Z,-80
2019-05-18T00:56:25.902Z,-81
2019-05-18T00:58:55.226Z,-81
2019-05-18T01:01:24.539Z,-80
2019-05-18T01:03:53.864Z,-81
2019-05-18T01:06:23.177Z,-80
2019-05-18T01:08:52.489Z,-80
2019-05-18T01:11:22.564Z,-81
2019-05-18T01:13:51.928Z,-84
2019-05-18T01:16:21.234Z,-81
2019-05-18T01:18:50.565Z,-84
2019-05-18T01:21:19.870Z,-84
2019-05-18T01:23:49.173Z,-82
2019-05-18T01:26:18.492Z,-81
2019-05-18T01:28:47.797Z,-82
2019-05-18T01:31:17.112Z,-81
2019-05-18T01:33:46.418Z,-81
2019-05-18T01:36:15.741Z,-84
2019-05-18T01:38:45.125Z,-79
2019-05-18T01:41:14.512Z,-75
2019-05-18T01:43:43.816Z,-75
2019-05-18T01:46:13.201Z,-75
2019-05-18T01:48:43.121Z,-75
2019-05-18T01:51:12.433Z,-75
2019-05-18T01:53:41.981Z,-75
2019-05-18T01:56:11.330Z,-74
2019-05-18T01:58:40.642Z,-75
2019-05-18T02:01:09.949Z,-74
2019-05-18T02:03:39.282Z,-75
2019-05-18T02:06:08.585Z,-75
2019-05-18T02:08:37.893Z,-74
2019-05-18T02:11:07.206Z,-74
2019-05-18T02:13:37.809Z,-74
2019-05-18T02:16:07.142Z,-74
2019-05-18T02:18:36.543Z,-74
2019-05-18T02:21:05.877Z,-75
2019-05-18T02:23:35.189Z,-75
2019-05-18T02:26:04.499Z,-74
2019-05-18T02:28:35.228Z,-74
2019-05-18T02:31:04.608Z,-74
2019-05-18T02:33:33.932Z,-74
2019-05-18T02:36:03.244Z,-74
2019-05-18T02:38:32.549Z,-75
2019-05-18T02:41:01.937Z,-75
2019-05-18T02:43:31.317Z,-74
2019-05-18T02:46:01.210Z,-75
2019-05-18T02:48:47.881Z,-74
2019-05-18T02:51:01.634Z,-75
2019-05-18T02:53:31.001Z,-74
2019-05-18T02:56:00.390Z,-74
2019-05-18T02:58:29.764Z,-74
2019-05-18T03:00:59.075Z,-74
2019-05-18T03:03:28.446Z,-74
2019-05-18T03:05:58.320Z,-76
2019-05-18T03:08:28.156Z,-74
2019-05-18T03:10:57.462Z,-75
2019-05-18T03:13:26.779Z,-75
2019-05-18T03:15:56.530Z,-74
2019-05-18T03:18:25.837Z,-75
2019-05-18T03:20:55.159Z,-75
2019-05-18T03:23:24.514Z,-74
2019-05-18T03:25:54.274Z,-74
2019-05-18T03:28:23.578Z,-74
2019-05-18T03:30:52.892Z,-73
2019-05-18T03:33:28.467Z,-74
2019-05-18T03:35:53.371Z,-74
2019-05-18T03:38:42.039Z,-74
2019-05-18T03:41:11.354Z,-74
2019-05-18T03:43:40.762Z,-74
2019-05-18T03:46:10.257Z,-75
2019-05-18T03:48:39.557Z,-74
2019-05-18T03:51:08.880Z,-74
2019-05-18T03:53:38.188Z,-74
2019-05-18T03:56:07.577Z,-74
2019-05-18T03:58:36.886Z,-74
2019-05-18T04:01:06.200Z,-74
2019-05-18T04:03:36.102Z,-74
2019-05-18T04:06:05.411Z,-74
2019-05-18T04:08:34.731Z,-74
2019-05-18T04:11:04.039Z,-74
2019-05-18T04:13:33.354Z,-74
2019-05-18T04:16:02.797Z,-74
2019-05-18T04:18:32.162Z,-74
2019-05-18T04:21:05.418Z,-74
2019-05-18T04:23:34.736Z,-75
2019-05-18T04:26:04.981Z,-75
2019-05-18T04:28:34.292Z,-75
2019-05-18T04:31:03.578Z,-75
2019-05-18T04:33:32.897Z,-75
2019-05-18T04:36:02.228Z,-75
2019-05-18T04:38:31.539Z,-74
2019-05-18T04:41:00.845Z,-75
2019-05-18T04:43:30.160Z,-75
2019-05-18T04:45:59.473Z,-75
2019-05-18T04:48:28.783Z,-75
2019-05-18T04:50:58.110Z,-75
2019-05-18T04:53:27.417Z,-75
2019-05-18T04:55:56.735Z,-75
2019-05-18T04:58:26.042Z,-75
2019-05-18T05:00:55.345Z,-74
2019-05-18T05:03:24.719Z,-75
2019-05-18T05:05:54.094Z,-74
2019-05-18T05:08:23.436Z,-75
2019-05-18T05:10:52.783Z,-75
2019-05-18T05:13:22.085Z,-75
2019-05-18T05:15:53.270Z,-75
2019-05-18T05:18:23.653Z,-75
2019-05-18T05:20:52.973Z,-75
2019-05-18T05:23:22.281Z,-75
2019-05-18T05:25:51.578Z,-75
2019-05-18T05:28:20.881Z,-75
2019-05-18T05:30:50.192Z,-74
2019-05-18T05:33:20.091Z,-75
2019-05-18T05:35:49.393Z,-74
2019-05-18T05:38:18.705Z,-75
2019-05-18T05:40:48.050Z,-75
2019-05-18T05:43:17.346Z,-75
2019-05-18T05:45:46.653Z,-75
2019-05-18T05:48:15.948Z,-75
2019-05-18T05:50:45.258Z,-75
2019-05-18T05:53:15.445Z,-75
2019-05-18T05:55:44.741Z,-74
2019-05-18T05:58:14.057Z,-74
2019-05-18T06:00:43.388Z,-75
2019-05-18T06:03:12.758Z,-74
2019-05-18T06:05:42.064Z,-74
2019-05-18T06:08:11.374Z,-75
2019-05-18T06:10:41.806Z,-75
2019-05-18T06:13:11.122Z,-75
2019-05-18T06:15:40.441Z,-75
2019-05-18T06:18:09.749Z,-75
2019-05-18T06:20:50.849Z,-75
2019-05-18T06:23:12.880Z,-75
2019-05-18T06:25:42.195Z,-75
2019-05-18T06:28:11.505Z,-75
2019-05-18T06:30:40.822Z,-75
2019-05-18T06:33:10.241Z,-75
2019-05-18T06:35:40.385Z,-75
2019-05-18T06:38:09.707Z,-75
2019-05-18T06:40:39.021Z,-75
2019-05-18T06:43:08.338Z,-74
2019-05-18T06:45:37.655Z,-75
2019-05-18T06:48:06.966Z,-74
2019-05-18T06:50:36.290Z,-75
2019-05-18T06:53:05.618Z,-75
2019-05-18T06:55:35.100Z,-75
2019-05-18T06:58:04.477Z,-75
2019-05-18T07:00:33.796Z,-75
2019-05-18T07:03:03.134Z,-75
2019-05-18T07:05:32.449Z,-75
2019-05-18T07:08:01.762Z,-75
2019-05-18T07:10:31.099Z,-75
2019-05-18T07:13:00.411Z,-75
2019-05-18T07:15:29.737Z,-75
2019-05-18T07:17:59.054Z,-75
2019-05-18T07:20:28.371Z,-75
2019-05-18T07:22:58.745Z,-74
2019-05-18T07:25:28.055Z,-75
2019-05-18T07:27:57.373Z,-75
2019-05-18T07:30:26.688Z,-74
2019-05-18T07:32:56.005Z,-75
2019-05-18T07:35:25.394Z,-75
2019-05-18T07:37:54.712Z,-75
2019-05-18T07:40:24.130Z,-75
2019-05-18T07:42:53.519Z,-75
2019-05-18T07:45:22.833Z,-75
2019-05-18T07:47:52.146Z,-75
2019-05-18T07:50:21.546Z,-75
2019-05-18T07:52:50.874Z,-75
2019-05-18T07:55:20.185Z,-74
2019-05-18T07:57:49.510Z,-75
2019-05-18T08:00:18.894Z,-75
2019-05-18T08:02:48.200Z,-75
2019-05-18T08:05:17.532Z,-75
2019-05-18T08:07:46.841Z,-75
2019-05-18T08:10:19.268Z,-75
2019-05-18T08:12:48.577Z,-75
2019-05-18T08:15:19.233Z,-75
2019-05-18T08:17:48.533Z,-75
2019-05-18T08:20:17.849Z,-75
2019-05-18T08:22:47.173Z,-75
2019-05-18T08:25:17.927Z,-75
2019-05-18T08:27:47.261Z,-74
2019-05-18T08:30:16.695Z,-75
2019-05-18T08:32:46.014Z,-75
2019-05-18T08:35:15.874Z,-74
2019-05-18T08:37:45.186Z,-75
2019-05-18T08:40:14.643Z,-75
2019-05-18T08:42:43.949Z,-75
2019-05-18T08:45:13.494Z,-75
2019-05-18T08:47:42.805Z,-75
2019-05-18T08:50:12.251Z,-75
2019-05-18T08:52:42.197Z,-75
2019-05-18T08:55:13.353Z,-75
2019-05-18T08:57:42.709Z,-74
2019-05-18T09:00:12.517Z,-75
2019-05-18T09:02:41.833Z,-75
2019-05-18T09:05:11.649Z,-74
2019-05-18T09:07:41.019Z,-75
2019-05-18T09:10:10.957Z,-74
2019-05-18T09:12:40.265Z,-74
2019-05-18T09:15:10.109Z,-74
2019-05-18T09:17:39.440Z,-74
2019-05-18T09:20:09.282Z,-74
2019-05-18T09:22:38.649Z,-77
2019-05-18T09:25:08.491Z,-76
2019-05-18T09:27:41.077Z,-80
2019-05-18T09:30:11.472Z,-77
2019-05-18T09:32:40.875Z,-74
2019-05-18T09:35:10.658Z,-76
2019-05-18T09:37:39.959Z,-75
2019-05-18T09:40:09.898Z,-76
2019-05-18T09:42:39.208Z,-75
2019-05-18T09:45:09.109Z,-74
2019-05-18T09:47:38.414Z,-76
2019-05-18T09:50:08.525Z,-75
2019-05-18T09:52:46.157Z,-76
2019-05-18T09:55:09.398Z,-74
2019-05-18T09:57:38.721Z,-74
2019-05-18T10:00:10.370Z,-74
2019-05-18T10:02:39.677Z,-73
2019-05-18T10:05:09.425Z,-78
2019-05-18T10:07:38.734Z,-77
2019-05-18T10:10:08.813Z,-77
2019-05-18T10:12:38.492Z,-76
2019-05-18T10:15:08.877Z,-77
2019-05-18T10:17:38.246Z,-77
2019-05-18T10:20:08.999Z,-77
2019-05-18T10:22:51.215Z,-76
2019-05-18T10:25:10.055Z,-77
2019-05-18T10:27:39.381Z,-77
2019-05-18T10:30:10.789Z,-76
2019-05-18T10:32:40.115Z,-76
2019-05-18T10:35:09.983Z,-76
2019-05-18T10:37:39.362Z,-76
2019-05-18T10:40:09.117Z,-74
2019-05-18T10:42:38.429Z,-76
2019-05-18T10:45:09.171Z,-77
2019-05-18T10:47:38.482Z,-77
2019-05-18T10:50:08.039Z,-76
2019-05-18T10:52:37.353Z,-75
2019-05-18T10:55:07.681Z,-76
2019-05-18T10:57:36.990Z,-75
2019-05-18T11:00:11.206Z,-76
2019-05-18T11:02:40.659Z,-75
2019-05-18T11:05:10.888Z,-76
2019-05-18T11:07:40.203Z,-79
2019-05-18T11:10:10.806Z,-83
2019-05-18T11:12:41.094Z,-80
2019-05-18T11:15:12.736Z,-79
2019-05-18T11:17:42.063Z,-76
2019-05-18T11:20:12.895Z,-77
2019-05-18T11:22:42.217Z,-77
2019-05-18T11:25:12.569Z,-77
2019-05-18T11:27:43.389Z,-80
2019-05-18T11:30:15.622Z,-76
2019-05-18T11:32:44.990Z,-77
2019-05-18T11:35:15.105Z,-75
2019-05-18T11:37:44.450Z,-76
2019-05-18T11:40:14.207Z,-76
2019-05-18T11:42:49.424Z,-76
2019-05-18T11:45:20.711Z,-77
2019-05-18T11:47:50.658Z,-78
2019-05-18T11:50:20.501Z,-80
2019-05-18T11:52:49.810Z,-76
2019-05-18T11:55:19.258Z,-77
2019-05-18T11:57:48.664Z,-77
2019-05-18T12:00:18.646Z,-77
2019-05-18T12:02:47.950Z,-79
2019-05-18T12:05:17.549Z,-78
2019-05-18T12:07:46.924Z,-80
2019-05-18T12:10:18.686Z,-77
2019-05-18T12:12:48.240Z,-79
2019-05-18T12:15:18.192Z,-79
2019-05-18T12:17:47.490Z,-75
2019-05-18T12:20:18.409Z,-74
2019-05-18T12:22:48.593Z,-78
2019-05-18T12:25:17.902Z,-78
2019-05-18T12:27:47.248Z,-77
2019-05-18T12:30:17.161Z,-75
2019-05-18T12:32:46.473Z,-77
2019-05-18T12:35:16.450Z,-75
2019-05-18T12:37:46.725Z,-77
2019-05-18T12:40:19.722Z,-77
2019-05-18T12:42:49.022Z,-77
2019-05-18T12:45:18.865Z,-76
2019-05-18T12:47:48.177Z,-77
2019-05-18T12:50:18.428Z,-75
2019-05-18T12:52:47.742Z,-75
2019-05-18T12:55:17.591Z,-75
2019-05-18T12:57:47.723Z,-72
2019-05-18T13:00:18.049Z,-75
2019-05-18T13:02:47.349Z,-74
2019-05-18T13:05:16.821Z,-73
2019-05-18T13:07:46.217Z,-76
2019-05-18T13:10:17.652Z,-76
2019-05-18T13:12:47.742Z,-76
2019-05-18T13:15:19.344Z,-75
2019-05-18T13:17:48.723Z,-75
2019-05-18T13:20:18.867Z,-76
2019-05-18T13:22:48.246Z,-75
2019-05-18T13:25:17.980Z,-75
2019-05-18T13:27:48.184Z,-74
2019-05-18T13:30:19.946Z,-74
2019-05-18T13:32:48.863Z,-73
2019-05-18T13:35:18.350Z,-76
2019-05-18T13:37:47.687Z,-76
2019-05-18T13:40:17.581Z,-76
2019-05-18T13:42:46.891Z,-75
2019-05-18T13:45:16.835Z,-77
2019-05-18T13:47:46.138Z,-74
2019-05-18T13:50:15.898Z,-74
2019-05-18T13:52:45.221Z,-75
2019-05-18T13:55:14.529Z,-75
2019-05-18T13:57:43.850Z,-75
2019-05-18T14:00:14.686Z,-74
2019-05-18T14:02:44.091Z,-74
2019-05-18T14:05:13.946Z,-75
2019-05-18T14:07:43.249Z,-75
2019-05-18T14:10:12.932Z,-75
2019-05-18T14:12:42.283Z,-76
2019-05-18T14:15:12.536Z,-75
2019-05-18T14:17:41.835Z,-78
2019-05-18T14:20:11.793Z,-79
2019-05-18T14:22:41.100Z,-75
2019-05-18T14:25:19.255Z,-75
2019-05-18T14:27:42.087Z,-77
2019-05-18T14:30:12.657Z,-75
2019-05-18T14:32:42.522Z,-74
2019-05-18T14:35:12.164Z,-78
2019-05-18T14:37:41.490Z,-77
2019-05-18T14:40:11.332Z,-74
2019-05-18T14:42:40.723Z,-75
2019-05-18T14:45:10.778Z,-76
2019-05-18T14:47:40.113Z,-77
2019-05-18T14:50:10.886Z,-77
2019-05-18T14:52:40.194Z,-75
2019-05-18T14:55:09.639Z,-75
2019-05-18T14:57:39.053Z,-79
2019-05-18T15:00:09.177Z,-77
2019-05-18T15:02:38.481Z,-76
2019-05-18T15:05:08.526Z,-76
2019-05-18T15:07:37.834Z,-76
2019-05-18T15:10:08.755Z,-77
2019-05-18T15:12:38.066Z,-75
2019-05-18T15:15:08.825Z,-76
2019-05-18T15:17:38.166Z,-75
2019-05-18T15:20:09.361Z,-76
2019-05-18T15:22:38.682Z,-75
2019-05-18T15:25:09.301Z,-74
2019-05-18T15:27:39.224Z,-76
2019-05-18T15:30:09.161Z,-73
2019-05-18T15:32:38.479Z,-77
2019-05-18T15:37:32.134Z,-74
2019-05-18T15:40:01.448Z,-77
2019-05-18T15:42:31.017Z,-76
2019-05-18T15:45:00.386Z,-78
2019-05-18T15:47:29.739Z,-78
2019-05-18T15:49:59.070Z,-78
2019-05-18T15:52:29.385Z,-78
2019-05-18T15:54:58.690Z,-77
2019-05-18T15:57:28.041Z,-77
2019-05-18T15:59:57.421Z,-77
2019-05-18T16:02:26.877Z,-76
2019-05-18T16:04:58.799Z,-77
2019-05-18T16:07:28.133Z,-76
2019-05-18T16:09:57.460Z,-75
2019-05-18T16:12:26.773Z,-77
2019-05-18T16:14:56.077Z,-77
2019-05-18T16:17:38.416Z,-76
2019-05-18T16:19:56.393Z,-78
2019-05-18T16:22:26.625Z,-84
2019-05-18T16:24:55.935Z,-79
2019-05-18T16:27:25.259Z,-78
2019-05-18T16:29:54.821Z,-75
2019-05-18T16:32:24.133Z,-76
2019-05-18T16:34:54.253Z,-77
2019-05-18T16:37:23.558Z,-75
2019-05-18T16:39:52.862Z,-76
2019-05-18T16:42:22.181Z,-78
2019-05-18T16:44:51.485Z,-75
2019-05-18T16:47:20.807Z,-73
2019-05-18T16:49:50.105Z,-76
2019-05-18T16:52:19.410Z,-75
2019-05-18T16:54:48.718Z,-75
2019-05-18T16:57:18.022Z,-74
2019-05-18T16:59:48.825Z,-75
2019-05-18T17:02:30.663Z,-74
2019-05-18T17:04:49.241Z,-74
2019-05-18T17:07:18.562Z,-75
2019-05-18T17:09:47.873Z,-74
2019-05-18T17:12:17.193Z,-75
2019-05-18T17:14:46.489Z,-74
2019-05-18T17:17:15.793Z,-75
2019-05-18T17:19:45.699Z,-74
2019-05-18T17:22:15.006Z,-74
2019-05-18T17:24:44.309Z,-74
2019-05-18T17:27:13.770Z,-74
2019-05-18T17:29:43.081Z,-75
2019-05-18T17:32:12.443Z,-75
2019-05-18T17:34:41.906Z,-74
2019-05-18T17:37:12.355Z,-75
2019-05-18T17:39:41.710Z,-75
2019-05-18T17:42:11.025Z,-74
2019-05-18T17:44:40.325Z,-75
2019-05-18T17:47:09.654Z,-74
2019-05-18T17:49:38.958Z,-74
2019-05-18T17:52:08.266Z,-75
2019-05-18T17:54:37.598Z,-74
2019-05-18T17:57:08.958Z,-74
2019-05-18T17:59:39.251Z,-74
2019-05-18T18:02:08.570Z,-75
2019-05-18T18:04:37.882Z,-74
2019-05-18T18:07:07.190Z,-75
2019-05-18T18:09:36.493Z,-74
2019-05-18T18:12:05.843Z,-74
2019-05-18T18:14:35.206Z,-75
2019-05-18T18:17:04.673Z,-74
2019-05-18T18:19:34.034Z,-75
2019-05-18T18:22:03.710Z,-74
2019-05-18T18:24:33.074Z,-74
2019-05-18T18:27:02.377Z,-75
2019-05-18T18:29:32.853Z,-75
2019-05-18T18:32:02.173Z,-75
2019-05-18T18:34:31.538Z,-75
2019-05-18T18:37:01.781Z,-74
2019-05-18T18:39:32.069Z,-75
2019-05-18T18:42:13.280Z,-74
2019-05-18T18:44:42.589Z,-77
2019-05-18T18:47:11.940Z,-76
2019-05-18T18:49:41.327Z,-78
2019-05-18T18:52:10.621Z,-78
2019-05-18T18:54:40.003Z,-76
2019-05-18T18:57:09.309Z,-77
2019-05-18T18:59:39.551Z,-77
2019-05-18T19:02:08.853Z,-78
2019-05-18T19:04:39.242Z,-79
2019-05-18T19:07:09.225Z,-79
2019-05-18T19:09:38.746Z,-79
2019-05-18T19:12:08.522Z,-78
2019-05-18T19:14:37.847Z,-78
2019-05-18T19:17:07.223Z,-76
2019-05-18T19:19:39.854Z,-77
2019-05-18T19:22:07.546Z,-73
2019-05-18T19:24:36.877Z,-73
2019-05-18T19:27:06.247Z,-73
2019-05-18T19:29:35.703Z,-73
2019-05-18T19:32:05.005Z,-72
2019-05-18T19:34:34.346Z,-73
2019-05-18T19:37:03.726Z,-73
2019-05-18T19:39:33.822Z,-74
2019-05-18T19:42:03.139Z,-73
2019-05-18T19:44:32.447Z,-73
2019-05-18T19:47:01.749Z,-74
2019-05-18T19:49:31.278Z,-73
2019-05-18T19:52:00.581Z,-74
2019-05-18T19:54:29.923Z,-74
2019-05-18T19:56:59.286Z,-74
2019-05-18T19:59:29.083Z,-73
2019-05-18T20:01:58.449Z,-73
2019-05-18T20:04:27.770Z,-74
2019-05-18T20:06:57.079Z,-73
2019-05-18T20:09:26.388Z,-73
2019-05-18T20:11:55.721Z,-73
2019-05-18T20:14:25.031Z,-73
2019-05-18T20:16:54.395Z,-73
2019-05-18T20:19:38.210Z,-73
2019-05-18T20:21:54.841Z,-74
2019-05-18T20:24:25.093Z,-74
2019-05-18T20:26:54.407Z,-73
2019-05-18T20:29:23.717Z,-73
2019-05-18T20:31:53.134Z,-73
2019-05-18T20:34:22.439Z,-73
2019-05-18T20:36:51.749Z,-73
2019-05-18T20:39:21.077Z,-73
2019-05-18T20:41:50.393Z,-73
2019-05-18T20:44:19.716Z,-73
2019-05-18T20:46:49.019Z,-74
2019-05-18T20:49:18.337Z,-74
2019-05-18T20:51:47.671Z,-73
2019-05-18T20:54:16.971Z,-73
2019-05-18T20:56:46.277Z,-73
2019-05-18T20:59:15.595Z,-73
2019-05-18T21:01:44.906Z,-73
2019-05-18T21:04:15.198Z,-73
2019-05-18T21:06:45.683Z,-73
2019-05-18T21:09:15.374Z,-73
2019-05-18T21:11:44.697Z,-73
2019-05-18T21:14:14.084Z,-74
2019-05-18T21:16:43.412Z,-73
2019-05-18T21:19:12.727Z,-73
2019-05-18T21:21:42.041Z,-73
2019-05-18T21:24:11.417Z,-73
2019-05-18T21:26:40.731Z,-74
2019-05-18T21:29:10.061Z,-73
2019-05-18T21:31:39.368Z,-74
2019-05-18T21:34:08.681Z,-73
2019-05-18T21:36:38.045Z,-73
2019-05-18T21:39:07.349Z,-73
2019-05-18T21:41:36.659Z,-74
2019-05-18T21:44:06.615Z,-73
2019-05-18T21:46:38.943Z,-73
2019-05-18T21:49:06.961Z,-73
2019-05-18T21:51:36.285Z,-74
2019-05-18T21:54:05.610Z,-73
2019-05-18T21:56:34.926Z,-74
2019-05-18T21:59:11.937Z,-73
2019-05-18T22:01:35.310Z,-73
2019-05-18T22:04:04.616Z,-74
2019-05-18T22:06:35.398Z,-73
2019-05-18T22:09:06.243Z,-73
2019-05-18T22:11:35.751Z,-74
2019-05-18T22:14:05.655Z,-73
2019-05-18T22:16:34.963Z,-73
2019-05-18T22:19:04.273Z,-73
2019-05-18T22:21:33.586Z,-74
2019-05-18T22:24:02.987Z,-75
2019-05-18T22:26:33.441Z,-73
2019-05-18T22:29:02.762Z,-73
2019-05-18T22:31:33.022Z,-75
2019-05-18T22:34:02.459Z,-74
2019-05-18T22:36:31.817Z,-73
2019-05-18T22:39:01.150Z,-73
2019-05-18T22:41:33.382Z,-74
2019-05-18T22:44:03.096Z,-72
2019-05-18T22:46:33.354Z,-73
2019-05-18T22:49:02.738Z,-73
2019-05-18T22:51:32.122Z,-74
2019-05-18T22:54:01.461Z,-74
2019-05-18T22:56:30.779Z,-74
2019-05-18T22:59:00.074Z,-74
2019-05-18T23:01:29.397Z,-73
2019-05-18T23:03:58.714Z,-74
2019-05-18T23:06:28.084Z,-74
2019-05-18T23:08:57.466Z,-73
2019-05-18T23:11:27.046Z,-73
2019-05-18T23:13:56.373Z,-73
2019-05-18T23:16:25.681Z,-73
2019-05-18T23:18:57.165Z,-73
2019-05-18T23:21:26.600Z,-74
2019-05-18T23:23:56.973Z,-73
2019-05-18T23:26:26.293Z,-74
2019-05-18T23:28:55.642Z,-74
2019-05-18T23:31:24.956Z,-73
2019-05-18T23:33:54.266Z,-73
2019-05-18T23:36:23.596Z,-73
2019-05-18T23:38:52.922Z,-74
2019-05-18T23:41:22.229Z,-73
2019-05-18T23:43:52.958Z,-73
2019-05-18T23:46:22.275Z,-73
2019-05-18T23:48:52.912Z,-73
2019-05-18T23:51:22.234Z,-74
2019-05-18T23:53:53.787Z,-73
2019-05-18T23:56:25.541Z,-74
2019-05-18T23:58:54.849Z,-73
